Florence, Montana
Current Conditions -  °F | °C
As of 11:53 PM on Friday 24 Oct 2014 (Local Time) from KMSO Reporting Station
Overcast Overcast  
Wind Chill: 43°   Ceiling: 3200
Heat Index: 43°   Visibility: 10mi
Dew Point: 43°   Wind: 3mph
Humidity: 100%   Direction: 70°ENE
Pressure: 30.07"   Gusts: NA
Location:  46.63°N, 114.09°W
Report Text: KMSO 250553Z AUTO 07003KT 10SM OVC032 06/06 A3007 RMK AO2 SLP193 60008 T00610061 10094 20056 56005
Loading
Personal Weather Stations






























Interactive Weather Map
Tropical Storm Tracking
New forecast layout! Learn more

10-Day Weather Forecast

Advertisements
Track Severe Weather on mobile